createdAt,value
2019-01-30T00:02:08.902Z,99.40
2019-01-30T00:05:27.764Z,99.60
2019-01-30T00:08:36.734Z,99.70
2019-01-30T00:11:45.298Z,99.50
2019-01-30T00:14:53.901Z,99.30
2019-01-30T00:18:02.391Z,99.40
2019-01-30T00:21:10.956Z,99.40
2019-01-30T00:24:21.027Z,99.40
2019-01-30T00:27:40.057Z,99.40
2019-01-30T00:30:48.712Z,99.60
2019-01-30T00:34:08.157Z,99.60
2019-01-30T00:37:16.771Z,99.60
2019-01-30T00:40:25.618Z,99.50
2019-01-30T00:43:34.280Z,99.50
2019-01-30T00:46:42.889Z,99.50
2019-01-30T00:49:51.474Z,99.50
2019-01-30T00:53:00.040Z,99.60
2019-01-30T00:56:08.586Z,99.40
2019-01-30T00:59:27.512Z,99.30
2019-01-30T01:02:35.976Z,99.50
2019-01-30T01:05:44.521Z,99.60
2019-01-30T01:08:53.140Z,99.60
2019-01-30T01:12:01.684Z,99.90
2019-01-30T01:15:20.631Z,99.70
2019-01-30T01:18:29.245Z,99.60
2019-01-30T01:21:37.791Z,99.30
2019-01-30T01:24:46.256Z,99.40
2019-01-30T01:27:54.896Z,99.50
2019-01-30T01:31:03.454Z,99.60
2019-01-30T01:34:22.707Z,99.50
2019-01-30T01:37:31.313Z,99.50
2019-01-30T01:40:39.871Z,99.40
2019-01-30T01:43:48.504Z,99.30
2019-01-30T01:46:56.980Z,99.10
2019-01-30T01:50:07.541Z,99.20
2019-01-30T01:53:16.023Z,99.20
2019-01-30T01:56:34.932Z,99.00
2019-01-30T01:59:43.497Z,99.20
2019-01-30T02:02:51.937Z,99.40
2019-01-30T02:06:00.501Z,99.20
2019-01-30T02:09:10.019Z,99.20
2019-01-30T02:12:18.508Z,99.60
2019-01-30T02:15:26.967Z,99.20
2019-01-30T02:18:35.588Z,99.10
2019-01-30T02:21:44.124Z,98.90
2019-01-30T02:25:02.994Z,99.10
2019-01-30T02:28:11.608Z,98.70
2019-01-30T02:31:20.267Z,98.90
2019-01-30T02:34:28.812Z,99.00
2019-01-30T02:37:37.477Z,99.00
2019-01-30T02:40:46.035Z,98.90
2019-01-30T02:44:04.834Z,98.90
2019-01-30T02:47:13.484Z,98.90
2019-01-30T02:50:22.270Z,98.80
2019-01-30T02:53:30.701Z,98.80
2019-01-30T02:56:39.371Z,98.80
2019-01-30T02:59:47.936Z,98.40
2019-01-30T03:02:56.669Z,98.60
2019-01-30T03:06:05.855Z,98.60
2019-01-30T03:09:14.394Z,98.40
2019-01-30T03:12:22.965Z,98.60
2019-01-30T03:15:41.707Z,98.70
2019-01-30T03:18:50.673Z,98.70
2019-01-30T03:21:59.226Z,98.60
2019-01-30T03:25:09.462Z,98.50
2019-01-30T03:28:18.070Z,98.40
2019-01-30T03:31:26.641Z,98.40
2019-01-30T03:34:35.160Z,98.30
2019-01-30T03:37:53.908Z,98.20
2019-01-30T03:41:02.665Z,98.10
2019-01-30T03:44:11.194Z,98.30
2019-01-30T03:47:19.870Z,98.70
2019-01-30T03:50:28.453Z,98.60
2019-01-30T03:53:36.986Z,98.60
2019-01-30T03:56:45.635Z,98.40
2019-01-30T04:00:05.406Z,98.60
2019-01-30T04:03:13.952Z,98.70
2019-01-30T04:06:22.540Z,98.50
2019-01-30T04:09:41.366Z,98.40
2019-01-30T04:12:49.823Z,98.40
2019-01-30T04:15:58.396Z,98.40
2019-01-30T04:19:06.975Z,98.60
2019-01-30T04:22:15.530Z,98.40
2019-01-30T04:25:34.358Z,98.30
2019-01-30T04:28:42.998Z,98.30
2019-01-30T04:31:51.567Z,98.60
2019-01-30T04:35:00.031Z,98.30
2019-01-30T04:38:08.660Z,98.20
2019-01-30T04:41:17.210Z,98.10
2019-01-30T04:44:36.084Z,98.20
2019-01-30T04:47:44.626Z,98.10
2019-01-30T04:50:53.182Z,98.10
2019-01-30T04:54:01.761Z,98.20
2019-01-30T04:57:10.438Z,98.30
2019-01-30T05:00:22.553Z,98.30
2019-01-30T05:03:31.020Z,98.30
2019-01-30T05:06:49.958Z,98.30
2019-01-30T05:09:58.538Z,98.20
2019-01-30T05:13:07.151Z,98.10
2019-01-30T05:16:15.758Z,98.40
2019-01-30T05:19:24.323Z,98.50
2019-01-30T05:22:32.892Z,98.30
2019-01-30T05:25:51.734Z,98.20
2019-01-30T05:29:00.223Z,98.40
2019-01-30T05:32:08.838Z,98.40
2019-01-30T05:35:17.409Z,98.60
2019-01-30T05:38:25.951Z,98.50
2019-01-30T05:41:34.519Z,98.50
2019-01-30T05:44:53.389Z,98.30
2019-01-30T05:48:02.009Z,98.30
2019-01-30T05:51:10.715Z,98.50
2019-01-30T05:54:19.365Z,98.40
2019-01-30T05:57:27.955Z,98.60
2019-01-30T06:00:40.488Z,98.70
2019-01-30T06:03:48.948Z,98.80
2019-01-30T06:06:57.512Z,98.80
2019-01-30T06:10:07.545Z,98.90
2019-01-30T06:13:26.338Z,98.70
2019-01-30T06:16:34.873Z,98.60
2019-01-30T06:19:43.451Z,98.60
2019-01-30T06:22:52.000Z,98.40
2019-01-30T06:26:00.585Z,98.30
2019-01-30T06:29:19.497Z,98.10
2019-01-30T06:32:28.059Z,98.10
2019-01-30T06:35:36.634Z,98.10
2019-01-30T06:38:45.257Z,98.10
2019-01-30T06:41:53.836Z,98.20
2019-01-30T06:45:02.396Z,98.10
2019-01-30T06:48:11.060Z,98.10
2019-01-30T06:51:29.986Z,98.10
2019-01-30T06:54:41.030Z,98.10
2019-01-30T06:57:48.958Z,98.00
2019-01-30T07:00:57.523Z,98.00
2019-01-30T07:04:06.063Z,98.20
2019-01-30T07:07:14.551Z,97.60
2019-01-30T07:10:33.250Z,97.70
2019-01-30T07:13:41.724Z,97.80
2019-01-30T07:16:51.081Z,97.90
2019-01-30T07:19:59.649Z,98.10
2019-01-30T07:23:08.266Z,98.20
2019-01-30T07:26:17.331Z,98.30
2019-01-30T07:29:25.955Z,98.30
2019-01-30T07:32:42.127Z,97.90
2019-01-30T07:35:44.853Z,97.60
2019-01-30T07:38:53.459Z,97.70
2019-01-30T07:42:02.025Z,97.60
2019-01-30T07:45:13.060Z,97.30
2019-01-30T07:48:21.908Z,97.20
2019-01-30T07:51:30.550Z,97.10
2019-01-30T07:54:39.198Z,97.00
2019-01-30T07:57:48.108Z,96.90
2019-01-30T08:00:56.855Z,96.70
2019-01-30T08:04:05.713Z,96.60
2019-01-30T08:07:14.375Z,96.50
2019-01-30T08:10:22.940Z,96.50
2019-01-30T08:13:31.531Z,96.50
2019-01-30T08:16:40.143Z,96.50
2019-01-30T08:19:59.008Z,96.30
2019-01-30T08:23:07.583Z,96.20
2019-01-30T08:26:16.948Z,96.30
2019-01-30T08:29:36.000Z,96.20
2019-01-30T08:32:44.825Z,96.30
2019-01-30T08:35:53.834Z,96.20
2019-01-30T08:39:02.499Z,96.20
2019-01-30T08:42:11.039Z,96.20
2019-01-30T08:45:32.607Z,96.10
2019-01-30T08:48:41.367Z,95.90
2019-01-30T08:52:00.102Z,95.80
2019-01-30T08:55:09.000Z,95.60
2019-01-30T08:58:16.270Z,95.80
2019-01-30T09:01:25.443Z,95.80
2019-01-30T09:04:34.966Z,95.80
2019-01-30T09:07:44.659Z,95.90
2019-01-30T09:10:53.397Z,95.70
2019-01-30T09:14:12.137Z,95.90
2019-01-30T09:17:20.785Z,95.60
2019-01-30T09:20:29.552Z,95.40
2019-01-30T09:23:38.138Z,95.30
2019-01-30T09:26:46.756Z,95.00
2019-01-30T09:29:55.380Z,95.10
2019-01-30T09:33:04.144Z,94.90
2019-01-30T09:36:12.744Z,95.00
2019-01-30T09:39:21.483Z,95.00
2019-01-30T09:42:40.284Z,95.10
2019-01-30T09:45:48.895Z,94.90
2019-01-30T09:48:57.691Z,94.80
2019-01-30T09:52:06.580Z,94.50
2019-01-30T09:55:16.510Z,94.10
2019-01-30T09:58:25.065Z,94.20
2019-01-30T10:01:33.636Z,94.10
2019-01-30T10:04:52.486Z,94.10
2019-01-30T10:08:01.099Z,94.00
2019-01-30T10:11:09.762Z,93.90
2019-01-30T10:14:18.303Z,93.70
2019-01-30T10:17:28.104Z,93.90
2019-01-30T10:20:37.475Z,93.70
2019-01-30T10:23:47.009Z,93.30
2019-01-30T10:26:55.512Z,93.10
2019-01-30T10:30:04.497Z,92.80
2019-01-30T10:33:13.016Z,92.90
2019-01-30T10:36:21.738Z,92.70
2019-01-30T10:39:30.273Z,92.70
2019-01-30T10:42:38.834Z,92.70
2019-01-30T10:45:47.376Z,92.50
2019-01-30T10:49:06.422Z,92.40
2019-01-30T10:52:15.006Z,92.10
2019-01-30T10:55:24.669Z,91.60
2019-01-30T10:58:33.206Z,91.70
2019-01-30T11:01:51.998Z,91.50
2019-01-30T11:05:00.439Z,91.40
2019-01-30T11:08:09.213Z,91.30
2019-01-30T11:11:17.804Z,91.40
2019-01-30T11:14:26.403Z,91.70
2019-01-30T11:17:35.055Z,91.60
2019-01-30T11:20:53.735Z,91.90
2019-01-30T11:24:02.296Z,91.30
2019-01-30T11:27:10.829Z,91.30
2019-01-30T11:30:20.205Z,91.10
2019-01-30T11:33:28.656Z,90.70
2019-01-30T11:36:37.242Z,90.40
2019-01-30T11:39:45.794Z,90.20
2019-01-30T11:42:54.530Z,90.40
2019-01-30T11:46:04.272Z,90.00
2019-01-30T11:49:12.797Z,89.50
2019-01-30T11:52:21.460Z,87.80
2019-01-30T11:55:29.964Z,88.60
2019-01-30T11:58:38.443Z,87.90
2019-01-30T12:01:46.980Z,87.30
2019-01-30T12:05:07.673Z,87.20
2019-01-30T12:08:16.437Z,86.20
2019-01-30T12:11:24.866Z,86.80
2019-01-30T12:14:33.319Z,85.40
2019-01-30T12:17:41.904Z,85.70
2019-01-30T12:20:51.971Z,86.80
2019-01-30T12:24:01.221Z,86.00
2019-01-30T12:27:10.009Z,86.10
2019-01-30T12:30:21.415Z,85.40
2019-01-30T12:33:29.878Z,86.00
2019-01-30T12:36:38.486Z,86.30
2019-01-30T12:39:47.036Z,86.30
2019-01-30T12:42:55.880Z,86.30
2019-01-30T12:46:04.414Z,85.60
2019-01-30T12:49:12.872Z,85.50
2019-01-30T12:52:31.682Z,85.90
2019-01-30T12:55:40.233Z,85.50
2019-01-30T12:58:48.837Z,83.90
2019-01-30T13:01:57.299Z,82.60
2019-01-30T13:05:07.780Z,82.30
2019-01-30T13:08:16.296Z,81.30
2019-01-30T13:11:35.023Z,80.70
2019-01-30T13:14:43.592Z,79.60
2019-01-30T13:17:52.538Z,80.40
2019-01-30T13:21:01.094Z,78.40
2019-01-30T13:24:09.518Z,77.00
2019-01-30T13:27:18.188Z,74.60
2019-01-30T13:30:36.325Z,74.20
2019-01-30T13:33:55.146Z,75.80
2019-01-30T13:37:03.824Z,75.20
2019-01-30T13:40:20.833Z,75.10
2019-01-30T13:43:29.389Z,75.10
2019-01-30T13:46:37.999Z,74.30
2019-01-30T13:49:46.577Z,74.80
2019-01-30T13:52:56.075Z,74.90
2019-01-30T13:56:04.626Z,74.20
2019-01-30T13:59:13.296Z,74.00
2019-01-30T14:02:21.973Z,73.10
2019-01-30T14:05:30.946Z,73.40
2019-01-30T14:08:39.384Z,74.10
2019-01-30T14:11:48.072Z,73.60
2019-01-30T14:14:56.606Z,74.50
2019-01-30T14:18:15.951Z,74.10
2019-01-30T14:21:34.760Z,76.00
2019-01-30T14:24:43.352Z,75.20
2019-01-30T14:27:52.075Z,75.40
2019-01-30T14:31:00.742Z,75.50
2019-01-30T14:34:09.290Z,76.10
2019-01-30T14:37:17.783Z,76.00
2019-01-30T14:40:26.350Z,76.50
2019-01-30T14:43:45.283Z,76.70
2019-01-30T14:46:53.888Z,77.20
2019-01-30T14:50:02.524Z,76.70
2019-01-30T14:53:11.159Z,76.30
2019-01-30T14:56:19.882Z,76.10
2019-01-30T14:59:29.004Z,76.30
2019-01-30T15:02:37.655Z,77.30
2019-01-30T15:05:46.275Z,78.10
2019-01-30T15:08:55.311Z,78.30
2019-01-30T15:12:03.936Z,77.80
2019-01-30T15:15:15.609Z,78.20
2019-01-30T15:18:35.742Z,78.30
2019-01-30T15:21:44.364Z,77.80
2019-01-30T15:24:52.950Z,78.60
2019-01-30T15:28:03.584Z,79.10
2019-01-30T15:31:12.057Z,78.00
2019-01-30T15:34:20.648Z,79.60
2019-01-30T15:37:29.297Z,79.80
2019-01-30T15:40:48.088Z,80.60
2019-01-30T15:43:56.688Z,80.50
2019-01-30T15:47:05.280Z,80.30
2019-01-30T15:50:21.952Z,81.20
2019-01-30T15:53:32.390Z,82.00
2019-01-30T15:56:40.889Z,82.60
2019-01-30T15:59:49.485Z,82.70
2019-01-30T16:02:58.073Z,83.40
2019-01-30T16:06:17.023Z,83.60
2019-01-30T16:09:25.597Z,84.70
2019-01-30T16:12:34.158Z,85.00
2019-01-30T16:15:56.185Z,85.70
2019-01-30T16:19:04.770Z,85.60
2019-01-30T16:22:13.341Z,85.60
2019-01-30T16:25:21.828Z,85.50
2019-01-30T16:28:30.434Z,85.90
2019-01-30T16:31:39.106Z,85.80
2019-01-30T16:34:57.980Z,86.60
2019-01-30T16:38:07.505Z,86.60
2019-01-30T16:41:16.244Z,86.70
2019-01-30T16:44:34.858Z,86.90
2019-01-30T16:47:43.499Z,87.10
2019-01-30T16:50:52.169Z,87.60
2019-01-30T16:54:00.832Z,87.80
2019-01-30T16:57:09.818Z,87.80
2019-01-30T17:00:25.161Z,88.00
2019-01-30T17:03:33.603Z,88.40
2019-01-30T17:06:43.871Z,88.40
2019-01-30T17:09:52.436Z,88.30
2019-01-30T17:13:01.021Z,88.20
2019-01-30T17:16:09.885Z,88.10
2019-01-30T17:19:28.836Z,88.10
2019-01-30T17:22:37.393Z,88.60
2019-01-30T17:25:45.997Z,88.90
2019-01-30T17:28:54.642Z,88.80
2019-01-30T17:32:03.251Z,88.70
2019-01-30T17:35:11.878Z,88.80
2019-01-30T17:38:20.527Z,88.80
2019-01-30T17:41:29.114Z,88.60
2019-01-30T17:44:47.966Z,88.40
2019-01-30T17:47:56.864Z,88.10
2019-01-30T17:51:05.759Z,88.20
2019-01-30T17:54:14.311Z,88.20
2019-01-30T17:57:22.854Z,88.10
2019-01-30T18:00:47.036Z,87.60
2019-01-30T18:03:55.601Z,87.60
2019-01-30T18:07:14.709Z,88.00
2019-01-30T18:10:23.157Z,89.50
2019-01-30T18:13:31.917Z,90.40
2019-01-30T18:16:40.520Z,91.00
2019-01-30T18:19:49.080Z,91.70
2019-01-30T18:22:57.671Z,93.30
2019-01-30T18:26:06.541Z,93.60
2019-01-30T18:29:15.045Z,94.00
2019-01-30T18:32:33.920Z,94.20
2019-01-30T18:35:42.525Z,94.70
2019-01-30T18:38:52.143Z,94.70
2019-01-30T18:42:12.537Z,94.80
2019-01-30T18:45:24.263Z,95.10
2019-01-30T18:48:32.797Z,94.90
2019-01-30T18:51:41.394Z,95.10
2019-01-30T18:54:49.958Z,95.20
2019-01-30T18:58:08.936Z,95.60
2019-01-30T19:01:17.450Z,95.80
2019-01-30T19:04:25.908Z,96.50
2019-01-30T19:07:34.579Z,97.00
2019-01-30T19:10:43.379Z,97.40
2019-01-30T19:13:51.959Z,97.30
2019-01-30T19:17:00.649Z,97.40
2019-01-30T19:20:14.451Z,97.40
2019-01-30T19:23:23.036Z,97.60
2019-01-30T19:26:41.765Z,97.90
2019-01-30T19:29:50.340Z,97.70
2019-01-30T19:32:58.913Z,97.60
2019-01-30T19:36:07.489Z,97.60
2019-01-30T19:39:17.530Z,97.70
2019-01-30T19:42:36.273Z,97.10
2019-01-30T19:45:44.768Z,97.20
2019-01-30T19:48:53.360Z,97.20
2019-01-30T19:52:02.104Z,97.30
2019-01-30T19:55:10.711Z,97.00
2019-01-30T19:58:19.385Z,96.60
2019-01-30T20:01:35.970Z,96.20
2019-01-30T20:04:39.460Z,96.40
2019-01-30T20:07:48.571Z,96.40
2019-01-30T20:10:57.281Z,96.00
2019-01-30T20:14:06.075Z,95.70
2019-01-30T20:17:25.449Z,96.20
2019-01-30T20:20:34.126Z,96.00
2019-01-30T20:23:42.779Z,95.60
2019-01-30T20:26:51.478Z,95.50
2019-01-30T20:30:00.370Z,95.60
2019-01-30T20:33:10.190Z,95.40
2019-01-30T20:36:18.901Z,95.50
2019-01-30T20:39:27.524Z,95.60
2019-01-30T20:42:46.275Z,95.20
2019-01-30T20:45:54.882Z,94.90
2019-01-30T20:49:03.555Z,95.20
2019-01-30T20:52:12.215Z,94.90
2019-01-30T20:55:20.945Z,94.90
2019-01-30T20:58:29.722Z,94.70
2019-01-30T21:01:38.333Z,94.40
2019-01-30T21:04:46.899Z,94.60
2019-01-30T21:08:06.712Z,94.70
2019-01-30T21:11:15.206Z,94.50
2019-01-30T21:14:23.662Z,94.60
2019-01-30T21:17:42.690Z,94.30
2019-01-30T21:20:51.166Z,94.30
2019-01-30T21:23:59.764Z,94.30
2019-01-30T21:27:08.440Z,94.40
2019-01-30T21:30:21.606Z,94.30
2019-01-30T21:33:40.425Z,94.40
2019-01-30T21:36:49.058Z,94.60
2019-01-30T21:39:57.639Z,94.70
2019-01-30T21:43:06.645Z,95.10
2019-01-30T21:46:15.124Z,95.30
2019-01-30T21:49:23.680Z,95.40
2019-01-30T21:52:32.266Z,95.60
2019-01-30T21:55:40.818Z,95.50
2019-01-30T21:58:50.532Z,95.60
2019-01-30T22:02:07.994Z,95.60
2019-01-30T22:05:09.493Z,95.30
2019-01-30T22:08:18.171Z,95.20
2019-01-30T22:11:26.762Z,95.40
2019-01-30T22:14:35.630Z,95.00
2019-01-30T22:17:44.279Z,94.90
2019-01-30T22:20:51.437Z,94.50
2019-01-30T22:24:11.190Z,94.10
2019-01-30T22:27:19.847Z,94.00
2019-01-30T22:30:31.785Z,93.90
2019-01-30T22:33:41.195Z,93.60
2019-01-30T22:36:53.000Z,93.60
2019-01-30T22:40:01.569Z,93.60
2019-01-30T22:43:10.136Z,93.70
2019-01-30T22:46:29.435Z,93.60
2019-01-30T22:49:48.053Z,93.30
2019-01-30T22:53:00.332Z,93.50
2019-01-30T22:56:08.702Z,93.80
2019-01-30T22:59:17.391Z,93.80
2019-01-30T23:02:26.874Z,93.80
2019-01-30T23:06:37.494Z,93.80
2019-01-30T23:10:34.837Z,93.80
2019-01-30T23:14:21.577Z,93.70
2019-01-30T23:18:35.326Z,93.40
2019-01-30T23:22:18.061Z,93.20
2019-01-30T23:26:12.787Z,93.20
2019-01-30T23:30:29.929Z,93.30
2019-01-30T23:35:10.974Z,93.30
2019-01-30T23:39:12.982Z,93.60
2019-01-30T23:43:31.334Z,93.80
2019-01-30T23:47:48.205Z,93.50
2019-01-30T23:51:59.973Z,93.40
2019-01-30T23:56:27.082Z,93.60
